createdAt,value
2023-05-18T00:00:34.392Z,19.7980
2023-05-18T00:01:36.233Z,19.7925
2023-05-18T00:02:38.296Z,19.7826
2023-05-18T00:03:42.665Z,19.7666
2023-05-18T00:04:41.845Z,19.7717
2023-05-18T00:05:43.603Z,19.7773
2023-05-18T00:06:45.508Z,19.7717
2023-05-18T00:07:47.344Z,19.7452
2023-05-18T00:08:49.251Z,19.7592
2023-05-18T00:09:51.001Z,19.7695
2023-05-18T00:10:52.861Z,19.7841
2023-05-18T00:11:54.652Z,19.7947
2023-05-18T00:12:56.514Z,19.7652
2023-05-18T00:13:58.377Z,19.7664
2023-05-18T00:15:00.220Z,19.7483
2023-05-18T00:16:02.120Z,19.7793
2023-05-18T00:17:03.884Z,19.8231
2023-05-18T00:18:05.802Z,19.8173
2023-05-18T00:19:07.635Z,19.8044
2023-05-18T00:20:09.424Z,19.8110
2023-05-18T00:21:11.267Z,19.8046
2023-05-18T00:22:13.106Z,19.8155
2023-05-18T00:23:14.942Z,19.8167
2023-05-18T00:24:16.810Z,19.8052
2023-05-18T00:25:18.668Z,19.8198
2023-05-18T00:26:20.489Z,19.8073
2023-05-18T00:27:22.330Z,19.7874
2023-05-18T00:28:24.174Z,19.7551
2023-05-18T00:29:26.010Z,19.7867
2023-05-18T00:30:27.853Z,19.7884
2023-05-18T00:31:29.767Z,19.7828
2023-05-18T00:32:31.628Z,19.7701
2023-05-18T00:33:33.398Z,19.7779
2023-05-18T00:34:35.226Z,19.7537
2023-05-18T00:35:37.087Z,19.7919
2023-05-18T00:36:38.948Z,19.8212
2023-05-18T00:37:40.785Z,19.8210
2023-05-18T00:38:42.603Z,19.8013
2023-05-18T00:39:44.446Z,19.7908
2023-05-18T00:40:46.305Z,19.8036
2023-05-18T00:41:48.161Z,19.8141
2023-05-18T00:42:49.980Z,19.8208
2023-05-18T00:43:51.862Z,19.8229
2023-05-18T00:44:53.672Z,19.8451
2023-05-18T00:45:55.543Z,19.8490
2023-05-18T00:46:57.364Z,19.8208
2023-05-18T00:47:59.219Z,19.7956
2023-05-18T00:49:01.032Z,19.8081
2023-05-18T00:50:02.892Z,19.8126
2023-05-18T00:51:04.764Z,19.8065
2023-05-18T00:52:06.576Z,19.7771
2023-05-18T00:53:08.404Z,19.7812
2023-05-18T00:54:10.264Z,19.7956
2023-05-18T00:55:12.097Z,19.8075
2023-05-18T00:56:13.938Z,19.7960
2023-05-18T00:57:15.818Z,19.7908
2023-05-18T00:58:17.635Z,19.8214
2023-05-18T00:59:19.466Z,19.8231
2023-05-18T01:00:21.355Z,19.8327
2023-05-18T01:01:23.219Z,19.8418
2023-05-18T01:02:25.126Z,19.8408
2023-05-18T01:03:26.963Z,19.8282
2023-05-18T01:04:28.706Z,19.8245
2023-05-18T01:05:30.727Z,19.8192
2023-05-18T01:06:32.376Z,19.8165
2023-05-18T01:07:34.251Z,19.8159
2023-05-18T01:08:36.062Z,19.7997
2023-05-18T01:09:37.941Z,19.7978
2023-05-18T01:10:39.761Z,19.7925
2023-05-18T01:11:41.626Z,19.7995
2023-05-18T01:12:43.470Z,19.7722
2023-05-18T01:13:45.279Z,19.7582
2023-05-18T01:14:47.138Z,19.7689
2023-05-18T01:15:49.581Z,19.7537
2023-05-18T01:16:50.845Z,19.7606
2023-05-18T01:17:52.710Z,19.7284
2023-05-18T01:18:54.529Z,19.7376
2023-05-18T01:19:56.354Z,19.7734
2023-05-18T01:20:58.197Z,19.7880
2023-05-18T01:22:00.053Z,19.7670
2023-05-18T01:23:01.886Z,19.7964
2023-05-18T01:24:03.798Z,19.7814
2023-05-18T01:25:05.569Z,19.7810
2023-05-18T01:26:07.414Z,19.7904
2023-05-18T01:27:09.234Z,19.8104
2023-05-18T01:28:11.118Z,19.8208
2023-05-18T01:29:12.934Z,19.8251
2023-05-18T01:30:14.763Z,19.8286
2023-05-18T01:31:16.741Z,19.8401
2023-05-18T01:32:18.449Z,19.8496
2023-05-18T01:33:20.317Z,19.8235
2023-05-18T01:34:22.159Z,19.8219
2023-05-18T01:35:23.976Z,19.8256
2023-05-18T01:36:25.843Z,19.8264
2023-05-18T01:37:27.679Z,19.8284
2023-05-18T01:38:29.507Z,19.8451
2023-05-18T01:39:31.345Z,19.8527
2023-05-18T01:40:33.216Z,19.8325
2023-05-18T01:41:35.028Z,19.8578
2023-05-18T01:42:36.879Z,19.8381
2023-05-18T01:43:38.710Z,19.8362
2023-05-18T01:44:40.557Z,19.8196
2023-05-18T01:45:42.413Z,19.8023
2023-05-18T01:46:44.372Z,19.8077
2023-05-18T01:47:46.166Z,19.7968
2023-05-18T01:48:47.934Z,19.7999
2023-05-18T01:49:49.790Z,19.8095
2023-05-18T01:50:51.630Z,19.8155
2023-05-18T01:51:53.479Z,19.7991
2023-05-18T01:52:55.341Z,19.7530
2023-05-18T01:53:57.174Z,19.7335
2023-05-18T01:54:58.997Z,19.7471
2023-05-18T01:56:00.839Z,19.7713
2023-05-18T01:57:02.706Z,19.7722
2023-05-18T01:58:04.524Z,19.7754
2023-05-18T01:59:06.405Z,19.7604
2023-05-18T02:00:08.231Z,19.7845
2023-05-18T02:01:10.163Z,19.7976
2023-05-18T02:02:11.978Z,19.8278
2023-05-18T02:03:13.838Z,19.8418
2023-05-18T02:04:15.668Z,19.8416
2023-05-18T02:05:24.977Z,19.8262
2023-05-18T02:06:19.283Z,19.7948
2023-05-18T02:07:21.136Z,19.8110
2023-05-18T02:08:22.983Z,19.8342
2023-05-18T02:09:24.841Z,19.8356
2023-05-18T02:10:26.700Z,19.8235
2023-05-18T02:11:28.510Z,19.8217
2023-05-18T02:12:30.360Z,19.8060
2023-05-18T02:13:32.201Z,19.8200
2023-05-18T02:14:34.082Z,19.8038
2023-05-18T02:15:35.878Z,19.8132
2023-05-18T02:16:37.790Z,19.8190
2023-05-18T02:17:39.672Z,19.8178
2023-05-18T02:18:41.458Z,19.8272
2023-05-18T02:19:43.295Z,19.8323
2023-05-18T02:20:45.128Z,19.8362
2023-05-18T02:21:46.971Z,19.8034
2023-05-18T02:22:48.877Z,19.7892
2023-05-18T02:23:50.650Z,19.7867
2023-05-18T02:24:52.491Z,19.8132
2023-05-18T02:25:54.410Z,19.7781
2023-05-18T02:26:56.241Z,19.7876
2023-05-18T02:27:58.095Z,19.7822
2023-05-18T02:28:59.923Z,19.7742
2023-05-18T02:30:01.786Z,19.7436
2023-05-18T02:31:03.620Z,19.7598
2023-05-18T02:32:05.494Z,19.7658
2023-05-18T02:33:07.358Z,19.7477
2023-05-18T02:34:09.159Z,19.7329
2023-05-18T02:35:10.998Z,19.7376
2023-05-18T02:36:12.847Z,19.7200
2023-05-18T02:37:14.700Z,19.7508
2023-05-18T02:38:16.527Z,19.7787
2023-05-18T02:39:18.377Z,19.7902
2023-05-18T02:40:20.234Z,19.7962
2023-05-18T02:41:22.071Z,19.8095
2023-05-18T02:42:23.893Z,19.7919
2023-05-18T02:43:25.771Z,19.8233
2023-05-18T02:44:27.581Z,19.8258
2023-05-18T02:45:29.696Z,19.8067
2023-05-18T02:46:31.315Z,19.8262
2023-05-18T02:47:33.146Z,19.8299
2023-05-18T02:48:34.980Z,19.8352
2023-05-18T02:49:36.796Z,19.8235
2023-05-18T02:50:38.650Z,19.8200
2023-05-18T02:51:40.489Z,19.8445
2023-05-18T02:52:42.324Z,19.8438
2023-05-18T02:53:44.276Z,19.8352
2023-05-18T02:54:46.010Z,19.7999
2023-05-18T02:55:47.878Z,19.7956
2023-05-18T02:56:49.681Z,19.8038
2023-05-18T02:57:51.536Z,19.7952
2023-05-18T02:58:53.376Z,19.7902
2023-05-18T02:59:55.205Z,19.8054
2023-05-18T03:00:57.094Z,19.8032
2023-05-18T03:01:58.943Z,19.8067
2023-05-18T03:03:00.806Z,19.8112
2023-05-18T03:04:02.572Z,19.7925
2023-05-18T03:05:04.426Z,19.8036
2023-05-18T03:06:06.261Z,19.7697
2023-05-18T03:07:08.093Z,19.7395
2023-05-18T03:08:09.956Z,19.7904
2023-05-18T03:09:11.786Z,19.8258
2023-05-18T03:10:13.637Z,19.8297
2023-05-18T03:11:15.496Z,19.8389
2023-05-18T03:12:17.312Z,19.8523
2023-05-18T03:13:19.158Z,19.8393
2023-05-18T03:14:21.021Z,19.8385
2023-05-18T03:15:22.866Z,19.8327
2023-05-18T03:16:24.962Z,19.8301
2023-05-18T03:17:26.575Z,19.8403
2023-05-18T03:18:28.400Z,19.8210
2023-05-18T03:19:30.243Z,19.8514
2023-05-18T03:20:32.097Z,19.8375
2023-05-18T03:21:34.081Z,19.8381
2023-05-18T03:22:35.779Z,19.8354
2023-05-18T03:23:37.613Z,19.8264
2023-05-18T03:24:39.469Z,19.8434
2023-05-18T03:25:41.295Z,19.8578
2023-05-18T03:26:43.151Z,19.8506
2023-05-18T03:27:44.991Z,19.8451
2023-05-18T03:28:46.843Z,19.8537
2023-05-18T03:29:48.671Z,19.8475
2023-05-18T03:30:50.515Z,19.8227
2023-05-18T03:31:52.430Z,19.8233
2023-05-18T03:32:54.269Z,19.8342
2023-05-18T03:33:56.064Z,19.8295
2023-05-18T03:34:57.886Z,19.8155
2023-05-18T03:35:59.748Z,19.8171
2023-05-18T03:37:01.615Z,19.8325
2023-05-18T03:38:03.445Z,19.8099
2023-05-18T03:39:05.266Z,19.7923
2023-05-18T03:40:07.128Z,19.8001
2023-05-18T03:41:08.961Z,19.8087
2023-05-18T03:42:10.799Z,19.8011
2023-05-18T03:43:12.641Z,19.8046
2023-05-18T03:44:14.515Z,19.8379
2023-05-18T03:45:16.312Z,19.8459
2023-05-18T03:46:18.245Z,19.8418
2023-05-18T03:47:20.012Z,19.8301
2023-05-18T03:48:21.868Z,19.8356
2023-05-18T03:49:23.666Z,19.8360
2023-05-18T03:50:25.553Z,19.8442
2023-05-18T03:51:27.372Z,19.8510
2023-05-18T03:52:29.213Z,19.8492
2023-05-18T03:53:31.048Z,19.8514
2023-05-18T03:54:32.968Z,19.8710
2023-05-18T03:55:34.742Z,19.8681
2023-05-18T03:56:36.577Z,19.8516
2023-05-18T03:57:38.477Z,19.8609
2023-05-18T03:58:40.272Z,19.8679
2023-05-18T03:59:42.135Z,19.8670
2023-05-18T04:00:43.960Z,19.8605
2023-05-18T04:01:45.855Z,19.8917
2023-05-18T04:02:47.690Z,19.8849
2023-05-18T04:03:49.544Z,19.8424
2023-05-18T04:04:51.338Z,19.8424
2023-05-18T04:05:53.175Z,19.8426
2023-05-18T04:06:55.008Z,19.8467
2023-05-18T04:07:56.884Z,19.8346
2023-05-18T04:08:58.688Z,19.8323
2023-05-18T04:10:00.545Z,19.8558
2023-05-18T04:11:02.389Z,19.8401
2023-05-18T04:12:04.225Z,19.8223
2023-05-18T04:13:06.088Z,19.7834
2023-05-18T04:14:07.926Z,19.7980
2023-05-18T04:15:09.761Z,19.8110
2023-05-18T04:16:11.611Z,19.8097
2023-05-18T04:17:13.440Z,19.7892
2023-05-18T04:18:15.585Z,19.7701
2023-05-18T04:19:17.210Z,19.7504
2023-05-18T04:20:18.977Z,19.7730
2023-05-18T04:21:20.831Z,19.7713
2023-05-18T04:22:22.676Z,19.7837
2023-05-18T04:23:24.514Z,19.8032
2023-05-18T04:24:26.353Z,19.8276
2023-05-18T04:25:28.691Z,19.8428
2023-05-18T04:26:30.044Z,19.8504
2023-05-18T04:27:31.896Z,19.8599
2023-05-18T04:28:33.763Z,19.8293
2023-05-18T04:29:35.563Z,19.8237
2023-05-18T04:30:37.459Z,19.8315
2023-05-18T04:31:39.278Z,19.8278
2023-05-18T04:32:41.131Z,19.8264
2023-05-18T04:33:42.972Z,19.8537
2023-05-18T04:34:44.786Z,19.8379
2023-05-18T04:35:46.632Z,19.8233
2023-05-18T04:36:48.498Z,19.8286
2023-05-18T04:37:50.344Z,19.8484
2023-05-18T04:38:52.193Z,19.8445
2023-05-18T04:39:54.010Z,19.8362
2023-05-18T04:40:55.851Z,19.8288
2023-05-18T04:41:57.710Z,19.8260
2023-05-18T04:42:59.556Z,19.8198
2023-05-18T04:44:01.406Z,19.8319
2023-05-18T04:45:03.253Z,19.8284
2023-05-18T04:46:05.120Z,19.8317
2023-05-18T04:47:06.922Z,19.8578
2023-05-18T04:48:08.851Z,19.8816
2023-05-18T04:49:10.679Z,19.8868
2023-05-18T04:50:12.458Z,19.8940
2023-05-18T04:51:14.332Z,19.8853
2023-05-18T04:52:16.174Z,19.8607
2023-05-18T04:53:18.022Z,19.8601
2023-05-18T04:54:19.852Z,19.8430
2023-05-18T04:55:21.693Z,19.8366
2023-05-18T04:56:23.538Z,19.8212
2023-05-18T04:57:25.374Z,19.8438
2023-05-18T04:58:28.195Z,19.8640
2023-05-18T04:59:29.093Z,19.8494
2023-05-18T05:00:30.906Z,19.8141
2023-05-18T05:01:32.824Z,19.8428
2023-05-18T05:02:34.724Z,19.8391
2023-05-18T05:03:36.493Z,19.8169
2023-05-18T05:04:38.306Z,19.8254
2023-05-18T05:05:40.115Z,19.7993
2023-05-18T05:06:41.982Z,19.7726
2023-05-18T05:07:43.808Z,19.7662
2023-05-18T05:08:45.685Z,19.7543
2023-05-18T05:09:47.547Z,19.7767
2023-05-18T05:10:49.365Z,19.7950
2023-05-18T05:11:51.196Z,19.8212
2023-05-18T05:12:53.041Z,19.7958
2023-05-18T05:13:54.927Z,19.7763
2023-05-18T05:14:56.779Z,19.7415
2023-05-18T05:15:58.630Z,19.7664
2023-05-18T05:17:00.425Z,19.7876
2023-05-18T05:18:02.307Z,19.8102
2023-05-18T05:19:04.156Z,19.8217
2023-05-18T05:20:05.975Z,19.8514
2023-05-18T05:21:07.785Z,19.8744
2023-05-18T05:22:09.651Z,19.8814
2023-05-18T05:23:11.516Z,19.8794
2023-05-18T05:24:13.327Z,19.9085
2023-05-18T05:25:15.237Z,19.9153
2023-05-18T05:26:17.013Z,19.9003
2023-05-18T05:27:18.869Z,19.8901
2023-05-18T05:28:20.712Z,19.8718
2023-05-18T05:29:22.554Z,19.8558
2023-05-18T05:30:24.396Z,19.8391
2023-05-18T05:31:26.273Z,19.8471
2023-05-18T05:32:28.119Z,19.8434
2023-05-18T05:33:29.915Z,19.8578
2023-05-18T05:34:31.767Z,19.8712
2023-05-18T05:35:34.057Z,19.8972
2023-05-18T05:36:35.435Z,19.8901
2023-05-18T05:37:37.278Z,19.8714
2023-05-18T05:38:39.117Z,19.8652
2023-05-18T05:39:40.993Z,19.8463
2023-05-18T05:40:42.833Z,19.8572
2023-05-18T05:41:44.651Z,19.8654
2023-05-18T05:42:46.507Z,19.8214
2023-05-18T05:43:48.341Z,19.8145
2023-05-18T05:44:50.201Z,19.8358
2023-05-18T05:45:52.050Z,19.8352
2023-05-18T05:46:53.945Z,19.8514
2023-05-18T05:47:55.810Z,19.8790
2023-05-18T05:48:57.569Z,19.8521
2023-05-18T05:49:59.401Z,19.8701
2023-05-18T05:51:01.284Z,19.8601
2023-05-18T05:52:03.112Z,19.8389
2023-05-18T05:53:04.925Z,19.8800
2023-05-18T05:54:07.897Z,19.9104
2023-05-18T05:55:08.624Z,19.9106
2023-05-18T05:56:10.468Z,19.8981
2023-05-18T05:57:12.308Z,19.8753
2023-05-18T05:58:14.141Z,19.9005
2023-05-18T05:59:15.997Z,19.9301
2023-05-18T06:00:17.817Z,19.9309
2023-05-18T06:01:19.692Z,19.9455
2023-05-18T06:02:21.564Z,19.9229
2023-05-18T06:03:23.518Z,19.8827
2023-05-18T06:04:25.261Z,19.8950
2023-05-18T06:05:27.092Z,19.9135
2023-05-18T06:06:28.894Z,19.9256
2023-05-18T06:07:30.719Z,19.9476
2023-05-18T06:08:32.554Z,19.9529
2023-05-18T06:09:34.414Z,19.9383
2023-05-18T06:10:36.248Z,19.9523
2023-05-18T06:11:38.083Z,19.9311
2023-05-18T06:12:39.940Z,19.9067
2023-05-18T06:13:41.771Z,19.9120
2023-05-18T06:14:43.594Z,19.9096
2023-05-18T06:15:45.452Z,19.9287
2023-05-18T06:16:47.351Z,19.9244
2023-05-18T06:17:49.141Z,19.9418
2023-05-18T06:18:50.994Z,19.9408
2023-05-18T06:19:52.819Z,19.9523
2023-05-18T06:20:54.673Z,19.9391
2023-05-18T06:21:56.512Z,19.9410
2023-05-18T06:22:58.322Z,19.9426
2023-05-18T06:24:00.172Z,19.9398
2023-05-18T06:25:02.017Z,19.9402
2023-05-18T06:26:03.846Z,19.9299
2023-05-18T06:27:05.724Z,19.9359
2023-05-18T06:28:07.565Z,19.9357
2023-05-18T06:29:09.476Z,19.9242
2023-05-18T06:30:11.339Z,19.9194
2023-05-18T06:31:13.150Z,19.9322
2023-05-18T06:32:15.021Z,19.9381
2023-05-18T06:33:16.949Z,19.9478
2023-05-18T06:34:18.686Z,19.9235
2023-05-18T06:35:20.537Z,19.9067
2023-05-18T06:36:22.357Z,19.9139
2023-05-18T06:37:24.220Z,19.8952
2023-05-18T06:38:26.054Z,19.8716
2023-05-18T06:39:27.881Z,19.8488
2023-05-18T06:40:29.750Z,19.8467
2023-05-18T06:41:31.573Z,19.8508
2023-05-18T06:42:33.421Z,19.8190
2023-05-18T06:43:35.255Z,19.8346
2023-05-18T06:44:37.100Z,19.8268
2023-05-18T06:45:39.166Z,19.8625
2023-05-18T06:46:40.971Z,19.8634
2023-05-18T06:47:42.668Z,19.8463
2023-05-18T06:48:44.444Z,19.8432
2023-05-18T06:49:46.282Z,19.8814
2023-05-18T06:50:48.135Z,19.8796
2023-05-18T06:51:49.964Z,19.8882
2023-05-18T06:52:51.824Z,19.8892
2023-05-18T06:53:53.671Z,19.9120
2023-05-18T06:54:55.498Z,19.9231
2023-05-18T06:55:57.344Z,19.9202
2023-05-18T06:56:59.188Z,19.9176
2023-05-18T06:58:01.042Z,19.9174
2023-05-18T06:59:02.873Z,19.9020
2023-05-18T07:00:04.687Z,19.9174
2023-05-18T07:01:06.642Z,19.9239
2023-05-18T07:02:08.379Z,19.9486
2023-05-18T07:03:10.321Z,19.9509
2023-05-18T07:04:12.170Z,19.9315
2023-05-18T07:05:13.905Z,19.9176
2023-05-18T07:06:15.758Z,19.9094
2023-05-18T07:07:17.579Z,19.8753
2023-05-18T07:08:19.514Z,19.8857
2023-05-18T07:09:21.271Z,19.9016
2023-05-18T07:10:23.103Z,19.9176
2023-05-18T07:11:25.582Z,19.9112
2023-05-18T07:12:26.797Z,19.8903
2023-05-18T07:13:28.647Z,19.9073
2023-05-18T07:14:30.475Z,19.8940
2023-05-18T07:15:32.594Z,19.8997
2023-05-18T07:16:34.311Z,19.8977
2023-05-18T07:17:36.063Z,19.9053
2023-05-18T07:18:37.907Z,19.9055
2023-05-18T07:19:39.733Z,19.9036
2023-05-18T07:20:41.558Z,19.9018
2023-05-18T07:21:43.397Z,19.8944
2023-05-18T07:22:45.253Z,19.9194
2023-05-18T07:23:47.128Z,19.9320
2023-05-18T07:24:48.930Z,19.9340
2023-05-18T07:25:50.775Z,19.9287
2023-05-18T07:26:52.628Z,19.9098
2023-05-18T07:27:54.545Z,19.9221
2023-05-18T07:28:56.341Z,19.9227
2023-05-18T07:29:58.159Z,19.9365
2023-05-18T07:31:00.039Z,19.9196
2023-05-18T07:32:01.909Z,19.9215
2023-05-18T07:33:03.727Z,19.9478
2023-05-18T07:34:05.539Z,19.9500
2023-05-18T07:35:07.395Z,19.9511
2023-05-18T07:36:09.272Z,19.9396
2023-05-18T07:37:11.062Z,19.9391
2023-05-18T07:38:12.934Z,19.9439
2023-05-18T07:39:14.800Z,19.9552
2023-05-18T07:40:16.607Z,19.9476
2023-05-18T07:41:18.476Z,19.9527
2023-05-18T07:42:20.318Z,19.9630
2023-05-18T07:43:22.140Z,19.9642
2023-05-18T07:44:24.012Z,19.9541
2023-05-18T07:45:25.844Z,19.9394
2023-05-18T07:46:27.712Z,19.9053
2023-05-18T07:47:29.625Z,19.9431
2023-05-18T07:48:31.377Z,19.9451
2023-05-18T07:49:33.220Z,19.9141
2023-05-18T07:50:35.082Z,19.9147
2023-05-18T07:51:37.001Z,19.9546
2023-05-18T07:52:38.759Z,19.9511
2023-05-18T07:53:40.581Z,19.9354
2023-05-18T07:54:42.453Z,19.9443
2023-05-18T07:55:44.261Z,19.9679
2023-05-18T07:56:46.120Z,19.9548
2023-05-18T07:57:47.941Z,19.9096
2023-05-18T07:58:49.794Z,19.9320
2023-05-18T07:59:51.638Z,19.9449
2023-05-18T08:00:53.473Z,19.9459
2023-05-18T08:01:55.356Z,19.9252
2023-05-18T08:02:57.269Z,19.9190
2023-05-18T08:03:59.080Z,19.9120
2023-05-18T08:05:00.823Z,19.9180
2023-05-18T08:06:02.686Z,19.9188
2023-05-18T08:07:04.507Z,19.9090
2023-05-18T08:08:07.109Z,19.9163
2023-05-18T08:09:08.191Z,19.9061
2023-05-18T08:10:10.061Z,19.9350
2023-05-18T08:11:11.889Z,19.9426
2023-05-18T08:12:13.722Z,19.9410
2023-05-18T08:13:15.560Z,19.9313
2023-05-18T08:14:17.416Z,19.9141
2023-05-18T08:15:19.256Z,19.9147
2023-05-18T08:16:21.131Z,19.9285
2023-05-18T08:17:22.968Z,19.9404
2023-05-18T08:18:24.772Z,19.9207
2023-05-18T08:19:26.694Z,19.8999
2023-05-18T08:20:28.479Z,19.9092
2023-05-18T08:21:30.294Z,19.9139
2023-05-18T08:22:32.164Z,19.9408
2023-05-18T08:23:33.984Z,19.9428
2023-05-18T08:24:35.836Z,19.9601
2023-05-18T08:25:37.688Z,19.9595
2023-05-18T08:26:39.492Z,19.9254
2023-05-18T08:27:41.355Z,19.9188
2023-05-18T08:28:43.174Z,19.9200
2023-05-18T08:29:45.018Z,19.9558
2023-05-18T08:30:46.896Z,19.9441
2023-05-18T08:31:49.674Z,19.9385
2023-05-18T08:32:50.596Z,19.9369
2023-05-18T08:33:52.392Z,19.9613
2023-05-18T08:34:54.250Z,19.9679
2023-05-18T08:35:56.101Z,19.9611
2023-05-18T08:36:57.939Z,19.9597
2023-05-18T08:37:59.780Z,19.9519
2023-05-18T08:39:01.600Z,19.9404
2023-05-18T08:40:03.470Z,19.9357
2023-05-18T08:41:05.334Z,19.9252
2023-05-18T08:42:07.140Z,19.9278
2023-05-18T08:43:08.993Z,19.9486
2023-05-18T08:44:10.814Z,19.9523
2023-05-18T08:45:12.674Z,19.9519
2023-05-18T08:46:14.520Z,19.9689
2023-05-18T08:47:16.349Z,19.9566
2023-05-18T08:48:18.212Z,19.9406
2023-05-18T08:49:20.044Z,19.9369
2023-05-18T08:50:28.052Z,19.9250
2023-05-18T08:51:26.378Z,19.9391
2023-05-18T08:52:26.950Z,19.9734
2023-05-18T08:53:28.492Z,19.9796
2023-05-18T08:54:30.051Z,19.9700
2023-05-18T08:55:31.820Z,19.9523
2023-05-18T08:56:33.174Z,19.9644
2023-05-18T08:57:34.756Z,19.9498
2023-05-18T08:58:36.656Z,19.9391
2023-05-18T08:59:38.528Z,19.9227
2023-05-18T09:00:40.278Z,19.9599
2023-05-18T09:01:42.190Z,19.9523
2023-05-18T09:02:43.960Z,19.9328
2023-05-18T09:03:45.782Z,19.9502
2023-05-18T09:04:47.670Z,19.9539
2023-05-18T09:05:49.479Z,19.9539
2023-05-18T09:06:51.309Z,19.9661
2023-05-18T09:07:53.177Z,19.9813
2023-05-18T09:08:55.006Z,19.9743
2023-05-18T09:09:56.842Z,20.0022
2023-05-18T09:10:58.679Z,20.0260
2023-05-18T09:12:00.531Z,20.0349
2023-05-18T09:13:02.355Z,20.0211
2023-05-18T09:14:04.214Z,19.9874
2023-05-18T09:15:06.061Z,19.9934
2023-05-18T09:16:08.013Z,20.0073
2023-05-18T09:17:09.730Z,20.0026
2023-05-18T09:18:11.645Z,19.9876
2023-05-18T09:19:13.500Z,19.9782
2023-05-18T09:20:15.256Z,19.9765
2023-05-18T09:21:17.105Z,19.9640
2023-05-18T09:22:18.952Z,19.9539
2023-05-18T09:23:20.789Z,19.9702
2023-05-18T09:24:24.791Z,19.9691
2023-05-18T09:25:24.482Z,19.9424
2023-05-18T09:26:26.311Z,19.9318
2023-05-18T09:27:28.169Z,19.9431
2023-05-18T09:28:30.015Z,19.9463
2023-05-18T09:29:33.578Z,19.9509
2023-05-18T09:30:33.687Z,19.9418
2023-05-18T09:31:35.560Z,19.9784
2023-05-18T09:32:37.486Z,19.9786
2023-05-18T09:33:39.318Z,20.0199
2023-05-18T09:34:41.058Z,20.0145
2023-05-18T09:35:42.914Z,20.0016
2023-05-18T09:36:44.756Z,19.9819
2023-05-18T09:37:46.633Z,19.9546
2023-05-18T09:38:48.447Z,19.9556
2023-05-18T09:39:50.270Z,19.9387
2023-05-18T09:40:52.124Z,19.9560
2023-05-18T09:41:53.974Z,19.9546
2023-05-18T09:42:55.800Z,19.9293
2023-05-18T09:43:57.665Z,19.9283
2023-05-18T09:44:59.516Z,19.9235
2023-05-18T09:46:01.339Z,19.9260
2023-05-18T09:47:03.419Z,19.9387
2023-05-18T09:48:05.080Z,19.9619
2023-05-18T09:49:06.872Z,19.9619
2023-05-18T09:50:08.725Z,19.9640
2023-05-18T09:51:10.579Z,19.9640
2023-05-18T09:52:12.409Z,19.9242
2023-05-18T09:53:14.245Z,19.9367
2023-05-18T09:54:16.110Z,19.9369
2023-05-18T09:55:17.939Z,19.9274
2023-05-18T09:56:19.777Z,19.9301
2023-05-18T09:57:21.663Z,19.9589
2023-05-18T09:58:23.482Z,19.9858
2023-05-18T09:59:25.313Z,19.9691
2023-05-18T10:00:27.170Z,19.9732
2023-05-18T10:01:29.118Z,19.9527
2023-05-18T10:02:30.864Z,19.9747
2023-05-18T10:03:32.715Z,19.9987
2023-05-18T10:04:34.604Z,19.9969
2023-05-18T10:05:36.672Z,19.9802
2023-05-18T10:06:38.228Z,19.9864
2023-05-18T10:07:40.055Z,19.9552
2023-05-18T10:08:41.933Z,19.9739
2023-05-18T10:09:43.755Z,19.9899
2023-05-18T10:10:45.604Z,19.9960
2023-05-18T10:11:47.421Z,19.9665
2023-05-18T10:12:49.282Z,19.9447
2023-05-18T10:13:51.118Z,19.9350
2023-05-18T10:14:52.955Z,19.9558
2023-05-18T10:15:54.819Z,19.9636
2023-05-18T10:17:07.296Z,19.9761
2023-05-18T10:18:01.206Z,19.9728
2023-05-18T10:19:01.806Z,19.9587
2023-05-18T10:20:03.310Z,19.9622
2023-05-18T10:21:04.898Z,19.9654
2023-05-18T10:22:06.430Z,19.9478
2023-05-18T10:23:07.993Z,19.9509
2023-05-18T10:24:09.579Z,19.9359
2023-05-18T10:25:11.391Z,19.9402
2023-05-18T10:26:13.272Z,19.9589
2023-05-18T10:27:15.072Z,19.9765
2023-05-18T10:28:16.914Z,19.9979
2023-05-18T10:29:18.768Z,20.0108
2023-05-18T10:30:20.599Z,20.0084
2023-05-18T10:31:22.511Z,20.0055
2023-05-18T10:32:24.322Z,20.0092
2023-05-18T10:33:29.685Z,20.0227
2023-05-18T10:34:28.043Z,20.0324
2023-05-18T10:35:29.895Z,20.0519
2023-05-18T10:36:31.720Z,20.0191
2023-05-18T10:37:33.578Z,19.9987
2023-05-18T10:38:35.416Z,20.0114
2023-05-18T10:39:37.303Z,20.0219
2023-05-18T10:40:39.130Z,20.0303
2023-05-18T10:41:40.920Z,20.0464
2023-05-18T10:42:42.767Z,20.0279
2023-05-18T10:43:44.619Z,20.0080
2023-05-18T10:44:46.474Z,20.0324
2023-05-18T10:45:48.373Z,20.0429
2023-05-18T10:46:50.265Z,20.0612
2023-05-18T10:47:52.051Z,20.0566
2023-05-18T10:48:53.809Z,20.0394
2023-05-18T10:49:55.691Z,20.0310
2023-05-18T10:50:57.517Z,20.0301
2023-05-18T10:51:59.339Z,20.0527
2023-05-18T10:53:01.198Z,20.0688
2023-05-18T10:54:03.041Z,20.0757
2023-05-18T10:55:04.865Z,20.0591
2023-05-18T10:56:06.729Z,20.0437
2023-05-18T10:57:08.546Z,20.0322
2023-05-18T10:58:10.410Z,20.0213
2023-05-18T10:59:12.261Z,20.0201
2023-05-18T11:00:14.088Z,20.0014
2023-05-18T11:01:15.997Z,19.9971
2023-05-18T11:02:17.767Z,19.9917
2023-05-18T11:03:19.666Z,19.9728
2023-05-18T11:04:21.490Z,19.9870
2023-05-18T11:05:23.473Z,20.0008
2023-05-18T11:06:25.154Z,20.0034
2023-05-18T11:07:26.957Z,20.0016
2023-05-18T11:08:28.839Z,20.0188
2023-05-18T11:09:30.640Z,20.0443
2023-05-18T11:10:32.570Z,20.0215
2023-05-18T11:11:34.321Z,20.0260
2023-05-18T11:12:36.166Z,20.0486
2023-05-18T11:13:37.995Z,20.0494
2023-05-18T11:14:39.854Z,20.0573
2023-05-18T11:15:41.697Z,20.0419
2023-05-18T11:16:43.607Z,20.0154
2023-05-18T11:17:45.418Z,19.9952
2023-05-18T11:18:47.269Z,19.9860
2023-05-18T11:19:49.047Z,19.9753
2023-05-18T11:20:50.905Z,19.9615
2023-05-18T11:21:52.761Z,19.9654
2023-05-18T11:22:54.606Z,19.9667
2023-05-18T11:23:56.444Z,19.9745
2023-05-18T11:24:58.269Z,19.9899
2023-05-18T11:26:00.133Z,20.0073
2023-05-18T11:27:01.963Z,19.9825
2023-05-18T11:28:03.795Z,19.9991
2023-05-18T11:29:05.646Z,20.0439
2023-05-18T11:30:15.162Z,20.0501
2023-05-18T11:31:11.106Z,20.0708
2023-05-18T11:33:13.306Z,20.0729
2023-05-18T11:34:14.864Z,20.0585
2023-05-18T11:35:16.704Z,20.0536
2023-05-18T11:36:18.547Z,20.0677
2023-05-18T11:37:20.388Z,20.0786
2023-05-18T11:38:22.232Z,20.0675
2023-05-18T11:39:24.079Z,20.0706
2023-05-18T11:40:25.897Z,20.0731
2023-05-18T11:41:27.765Z,20.0753
2023-05-18T11:42:29.598Z,20.0924
2023-05-18T11:43:31.425Z,20.0718
2023-05-18T11:44:33.278Z,20.0632
2023-05-18T11:45:35.102Z,20.0704
2023-05-18T11:46:36.974Z,20.0529
2023-05-18T11:47:38.812Z,20.0881
2023-05-18T11:48:40.722Z,20.1109
2023-05-18T11:49:42.493Z,20.1113
2023-05-18T11:50:44.310Z,20.1121
2023-05-18T11:51:46.165Z,20.1139
2023-05-18T11:52:48.101Z,20.0996
2023-05-18T11:53:49.845Z,20.0918
2023-05-18T11:54:51.701Z,20.0872
2023-05-18T11:55:53.535Z,20.0864
2023-05-18T11:56:55.398Z,20.0858
2023-05-18T11:57:57.212Z,20.0946
2023-05-18T11:58:59.069Z,20.0942
2023-05-18T12:00:00.911Z,20.0690
2023-05-18T12:01:02.762Z,20.0747
2023-05-18T12:02:04.671Z,20.0548
2023-05-18T12:03:06.554Z,20.0759
2023-05-18T12:04:08.365Z,20.0813
2023-05-18T12:05:10.131Z,20.0809
2023-05-18T12:06:11.963Z,20.0688
2023-05-18T12:07:13.840Z,20.0755
2023-05-18T12:08:15.647Z,20.0671
2023-05-18T12:09:17.502Z,20.0702
2023-05-18T12:10:19.332Z,20.0891
2023-05-18T12:11:21.170Z,20.0833
2023-05-18T12:12:23.050Z,20.0803
2023-05-18T12:13:24.854Z,20.0778
2023-05-18T12:14:26.719Z,20.0729
2023-05-18T12:15:28.557Z,20.0720
2023-05-18T12:16:30.425Z,20.0778
2023-05-18T12:17:32.249Z,20.0879
2023-05-18T12:18:34.069Z,20.0757
2023-05-18T12:19:35.922Z,20.0700
2023-05-18T12:20:37.742Z,20.0690
2023-05-18T12:21:39.598Z,20.0677
2023-05-18T12:22:41.460Z,20.0782
2023-05-18T12:23:43.282Z,20.0509
2023-05-18T12:24:45.128Z,20.0312
2023-05-18T12:25:46.975Z,20.0509
2023-05-18T12:26:48.792Z,20.0589
2023-05-18T12:27:50.684Z,20.0595
2023-05-18T12:28:52.482Z,20.0482